Time;durP1;ratioP1;P1;durP2;ratioP2;P2;SDS_P1;SDS_P2;PMS_P1;PMS_P2;Temp;Humidity;BMP_temperature;BMP_pressure;BME280_temperature;BME280_humidity;BME280_pressure;Samples;Min_cycle;Max_cycle;Signal;HPM_P1;HPM_P2
2022/09/30 00:01:53;;;;;;;12.10;9.60;;;16.70;99.90;;;17.03;78.23;94645.91;5025696;28;20544;-56
2022/09/30 00:04:21;;;;;;;14.50;9.50;;;16.70;99.90;;;17.01;78.30;94650.59;5026728;28;20542;-55
2022/09/30 00:06:49;;;;;;;9.97;8.80;;;16.70;99.90;;;17.00;78.73;94645.47;5026689;28;20464;-56
2022/09/30 00:09:16;;;;;;;16.33;8.90;;;16.70;99.90;;;16.99;78.38;94635.84;5027359;28;20476;-56
2022/09/30 00:11:45;;;;;;;15.87;10.73;;;16.60;99.90;;;17.00;78.25;94643.63;5024274;28;20946;-56
2022/09/30 00:14:16;;;;;;;11.57;9.20;;;16.60;99.90;;;16.96;78.66;94631.72;5027551;28;20476;-56
2022/09/30 00:16:43;;;;;;;15.50;10.50;;;16.60;99.90;;;16.93;78.00;94636.56;5024455;28;20484;-55
2022/09/30 00:19:10;;;;;;;20.90;10.80;;;16.60;99.90;;;16.88;79.04;94634.47;5026004;28;20484;-56
2022/09/30 00:21:38;;;;;;;15.60;12.17;;;16.60;99.90;;;16.84;78.71;94641.16;5027036;28;20471;-57
2022/09/30 00:24:05;;;;;;;15.13;11.60;;;16.50;99.90;;;16.82;78.97;94657.28;5027071;28;20828;-54
2022/09/30 00:26:33;;;;;;;20.60;12.00;;;16.50;99.90;;;16.80;78.76;94659.25;5025281;28;20478;-55
2022/09/30 00:29:02;;;;;;;21.80;12.30;;;16.50;99.90;;;16.79;78.93;94652.31;5025422;28;20515;-60
2022/09/30 00:31:30;;;;;;;18.07;12.97;;;16.50;99.90;;;16.78;78.94;94645.34;5026136;28;20993;-54
2022/09/30 00:34:06;;;;;;;15.77;12.50;;;16.40;99.90;;;16.76;78.61;94646.53;5026310;28;20457;-54
2022/09/30 00:36:35;;;;;;;19.03;11.63;;;16.40;99.90;;;16.76;79.01;94639.41;5024596;28;20564;-56
2022/09/30 00:39:02;;;;;;;14.50;11.13;;;16.40;99.90;;;16.76;78.59;94642.06;5025773;28;20484;-55
2022/09/30 00:41:29;;;;;;;15.37;11.60;;;16.40;99.90;;;16.74;79.01;94644.06;5025975;28;20460;-55
2022/09/30 00:43:56;;;;;;;15.43;12.10;;;16.40;99.90;;;16.73;78.99;94642.44;5027023;28;20453;-56
2022/09/30 00:46:32;;;;;;;16.03;11.83;;;16.40;99.90;;;16.73;78.80;94636.28;5026514;28;20487;-55
2022/09/30 00:49:00;;;;;;;20.10;14.20;;;16.40;99.90;;;16.71;78.43;94638.31;5026668;28;20487;-56
2022/09/30 00:51:30;;;;;;;31.83;16.93;;;16.40;99.90;;;16.68;78.82;94639.47;5023805;28;20453;-55
2022/09/30 00:53:59;;;;;;;119.10;19.43;;;16.30;99.90;;;16.64;78.53;94639.03;5025333;28;20993;-55
2022/09/30 00:56:28;;;;;;;229.70;20.80;;;16.30;99.90;;;16.58;78.52;94645.06;5026717;28;20492;-56
2022/09/30 00:58:56;;;;;;;91.30;19.30;;;16.30;99.90;;;16.48;78.63;94637.38;5025380;28;20944;-54
2022/09/30 01:01:25;;;;;;;67.20;17.70;;;16.20;99.90;;;16.41;79.07;94638.28;5025900;28;20453;-56
2022/09/30 01:03:55;;;;;;;31.50;17.30;;;16.10;99.90;;;16.34;79.52;94640.81;5025546;28;20518;-55
2022/09/30 01:06:23;;;;;;;72.80;14.73;;;16.10;99.90;;;16.30;79.45;94626.28;5027065;28;20472;-56
2022/09/30 01:08:50;;;;;;;23.73;14.73;;;16.00;99.90;;;16.25;79.90;94628.63;5023503;28;20460;-54
2022/09/30 01:11:17;;;;;;;23.97;12.93;;;16.00;99.90;;;16.22;79.69;94634.31;5025502;28;20457;-55
2022/09/30 01:13:47;;;;;;;20.90;12.70;;;15.90;99.90;;;16.17;80.38;94637.50;5025632;28;21064;-54
2022/09/30 01:16:39;;;;;;;19.27;13.33;;;15.90;99.90;;;16.15;80.80;94634.22;5025297;28;21029;-55
2022/09/30 01:19:41;;;;;;;19.20;12.70;;;15.80;99.90;;;16.17;80.84;94642.00;5024998;28;20488;-56
2022/09/30 01:22:21;;;;;;;17.80;11.97;;;15.90;99.90;;;16.18;81.15;94655.09;4985361;28;20458;-53
2022/09/30 01:25:24;;;;;;;22.43;12.77;;;15.90;99.90;;;16.22;80.68;94656.38;5022931;28;20546;-55
2022/09/30 01:28:29;;;;;;;20.40;13.47;;;15.90;99.90;;;16.26;80.87;94665.63;5024312;28;20469;-56
2022/09/30 01:31:08;;;;;;;20.00;12.93;;;15.90;99.90;;;16.30;80.77;94658.13;5023300;28;20479;-56
2022/09/30 01:33:42;;;;;;;14.20;10.77;;;15.90;99.90;;;16.29;80.14;94651.16;5022861;28;20495;-55
2022/09/30 01:36:28;;;;;;;20.07;12.23;;;15.90;99.90;;;16.27;80.48;94650.53;5024563;28;20483;-55
2022/09/30 01:39:03;;;;;;;22.27;13.00;;;15.90;99.90;;;16.24;80.48;94654.38;5024919;28;20506;-57
2022/09/30 01:41:36;;;;;;;19.73;11.77;;;15.90;99.90;;;16.23;80.73;94647.41;5023179;28;20444;-54
2022/09/30 01:44:09;;;;;;;19.47;11.40;;;16.00;99.90;;;16.23;80.42;94647.41;5025233;28;20627;-55
2022/09/30 01:46:43;;;;;;;22.60;11.37;;;15.90;99.90;;;16.23;81.03;94652.69;5024852;28;20498;-55
2022/09/30 01:49:14;;;;;;;23.07;12.30;;;15.90;99.90;;;16.24;81.00;94648.25;5025651;28;20480;-55
2022/09/30 01:51:43;;;;;;;16.50;11.70;;;15.90;99.90;;;16.23;80.64;94655.34;5023692;28;20518;-54
2022/09/30 01:54:15;;;;;;;26.73;12.40;;;15.90;99.90;;;16.24;81.16;94653.56;5025549;28;20519;-54
2022/09/30 01:56:44;;;;;;;24.87;12.77;;;15.90;99.90;;;16.25;81.12;94644.56;5021845;28;20473;-54
2022/09/30 01:59:14;;;;;;;21.53;14.23;;;16.00;99.90;;;16.30;80.66;94658.13;5024724;28;20485;-56
2022/09/30 02:01:47;;;;;;;25.77;13.13;;;16.00;99.90;;;16.29;80.92;94653.81;5025013;28;20455;-54
2022/09/30 02:04:18;;;;;;;16.53;12.10;;;15.90;99.90;;;16.27;80.84;94651.34;5025741;28;20468;-55
2022/09/30 02:06:49;;;;;;;54.50;11.80;;;15.90;99.90;;;16.24;80.71;94654.38;5024659;28;20485;-55
2022/09/30 02:09:19;;;;;;;38.50;13.67;;;15.90;99.90;;;16.21;81.04;94653.91;5025507;28;20938;-57
2022/09/30 02:11:46;;;;;;;31.87;12.40;;;15.90;99.90;;;16.18;81.02;94656.91;5026797;28;20473;-56
2022/09/30 02:14:18;;;;;;;21.93;12.33;;;15.90;99.90;;;16.16;81.20;94661.56;5024165;28;20515;-55
2022/09/30 02:16:49;;;;;;;17.20;11.60;;;15.80;99.90;;;16.18;81.50;94671.00;5029264;28;21047;-56
2022/09/30 02:19:19;;;;;;;15.83;11.30;;;15.80;99.90;;;16.20;81.09;94663.69;5026754;28;20854;-55
2022/09/30 02:21:51;;;;;;;17.23;12.03;;;15.90;99.90;;;16.19;81.40;94659.41;5024452;28;20957;-56
2022/09/30 02:24:20;;;;;;;268.07;17.10;;;15.90;99.90;;;16.25;81.54;94669.28;5029439;28;21009;-55
2022/09/30 02:26:47;;;;;;;16.70;10.93;;;15.90;99.90;;;16.26;81.44;94667.44;5027733;28;20460;-55
2022/09/30 02:29:18;;;;;;;21.43;12.47;;;15.90;99.90;;;16.25;81.42;94666.63;5027936;28;20483;-55
2022/09/30 02:31:48;;;;;;;82.17;14.57;;;15.90;99.90;;;16.27;81.19;94669.94;5028762;28;20451;-55
2022/09/30 02:34:16;;;;;;;14.27;11.37;;;15.90;99.90;;;16.30;81.45;94663.44;5028265;28;20494;-57
2022/09/30 02:36:45;;;;;;;20.90;12.07;;;15.90;99.90;;;16.31;81.10;94665.06;5028338;28;20492;-55
2022/09/30 02:39:16;;;;;;;17.73;11.03;;;16.00;99.90;;;16.33;81.15;94663.09;5024855;28;20883;-52
2022/09/30 02:41:48;;;;;;;21.93;11.33;;;16.00;99.90;;;16.33;80.93;94662.25;5028187;28;20456;-54
2022/09/30 02:44:17;;;;;;;14.07;11.50;;;16.00;99.90;;;16.33;80.98;94651.63;5028032;28;20503;-56
2022/09/30 02:46:52;;;;;;;28.60;11.07;;;16.00;99.90;;;16.33;80.93;94670.19;5028746;28;20456;-57
2022/09/30 02:49:22;;;;;;;14.30;10.83;;;16.00;99.90;;;16.33;81.15;94668.38;5027728;28;20484;-55
2022/09/30 02:52:10;;;;;;;13.73;11.37;;;16.00;99.90;;;16.35;81.30;94677.00;5028709;28;20475;-54
2022/09/30 02:54:44;;;;;;;20.00;13.30;;;16.00;99.90;;;16.37;80.56;94667.00;5028962;28;20483;-57
2022/09/30 02:57:18;;;;;;;60.67;15.60;;;16.00;99.90;;;16.39;80.27;94678.28;5028884;28;20651;-56
2022/09/30 02:59:46;;;;;;;21.80;15.27;;;16.10;99.90;;;16.36;80.62;94678.66;5026872;28;20492;-57
2022/09/30 03:02:15;;;;;;;21.30;14.97;;;16.00;99.90;;;16.36;80.66;94677.81;5025887;28;20559;-52
2022/09/30 03:04:42;;;;;;;23.80;15.07;;;16.00;99.90;;;16.37;80.54;94684.78;5028647;28;20592;-55
2022/09/30 03:07:09;;;;;;;19.43;14.43;;;16.00;99.90;;;16.37;80.30;94680.28;5027764;28;20456;-56
2022/09/30 03:09:37;;;;;;;23.23;14.17;;;16.10;99.90;;;16.37;80.61;94693.56;5028123;28;20468;-54
2022/09/30 03:12:12;;;;;;;58.97;15.30;;;16.10;99.90;;;16.36;80.38;94691.06;5026959;28;20460;-56
2022/09/30 03:15:16;;;;;;;22.40;14.23;;;16.10;99.90;;;16.34;80.47;94682.47;5028413;28;20788;-54
2022/09/30 03:18:00;;;;;;;22.20;14.20;;;16.00;99.90;;;16.34;80.09;94688.59;5012479;28;21012;-56
2022/09/30 03:20:47;;;;;;;25.77;14.50;;;16.00;99.90;;;16.32;80.12;94680.00;5028142;28;20942;-57
2022/09/30 03:23:45;;;;;;;20.73;14.30;;;16.00;99.90;;;16.30;80.27;94680.19;5024080;28;20772;-55
2022/09/30 03:26:24;;;;;;;20.10;14.37;;;16.00;99.90;;;16.30;80.06;94677.53;5027222;28;20480;-56
2022/09/30 03:28:58;;;;;;;20.10;12.87;;;16.00;99.90;;;16.28;80.00;94686.66;5024072;28;20890;-56
2022/09/30 03:31:31;;;;;;;28.83;11.73;;;16.00;99.90;;;16.28;80.17;94681.34;5026195;28;20457;-57
2022/09/30 03:34:05;;;;;;;16.17;12.67;;;16.00;99.90;;;16.27;80.10;94687.69;5027075;28;20558;-55
2022/09/30 03:36:36;;;;;;;14.77;12.23;;;16.00;99.90;;;16.25;80.09;94682.56;5026344;28;20480;-55
2022/09/30 03:39:08;;;;;;;23.73;12.80;;;15.90;99.90;;;16.25;79.81;94681.72;5026307;28;20539;-58
2022/09/30 03:41:39;;;;;;;17.90;10.93;;;15.90;99.90;;;16.25;79.90;94684.38;5026344;28;21004;-57
2022/09/30 03:44:10;;;;;;;15.20;11.33;;;15.90;99.90;;;16.23;80.02;94684.53;5026792;28;20473;-58
2022/09/30 03:46:40;;;;;;;18.50;11.50;;;15.90;99.90;;;16.24;79.96;94699.47;5022980;28;20479;-57
2022/09/30 03:49:12;;;;;;;15.53;10.60;;;16.00;99.90;;;16.23;79.89;94711.09;5024480;28;20859;-54
2022/09/30 03:51:39;;;;;;;15.77;11.53;;;15.90;99.90;;;16.24;79.73;94711.94;5027601;28;20445;-56
2022/09/30 03:54:09;;;;;;;19.20;13.20;;;15.90;99.90;;;16.22;79.72;94705.97;5026787;28;20496;-55
2022/09/30 03:56:42;;;;;;;25.53;12.43;;;15.90;99.90;;;16.21;79.67;94705.16;5027127;28;20488;-57
2022/09/30 03:59:17;;;;;;;15.17;11.20;;;15.90;99.90;;;16.19;79.73;94709.81;5027598;28;21056;-56
2022/09/30 04:01:44;;;;;;;15.43;11.73;;;15.90;99.90;;;16.18;79.63;94720.59;5026891;28;20444;-54
2022/09/30 04:04:13;;;;;;;24.03;12.60;;;15.90;99.90;;;16.18;79.74;94723.25;5026236;28;20473;-56
2022/09/30 04:06:40;;;;;;;21.40;13.20;;;15.90;99.90;;;16.18;80.01;94717.94;5027512;28;20453;-55
2022/09/30 04:09:07;;;;;;;24.43;12.80;;;15.90;99.90;;;16.18;79.67;94717.94;5027928;28;20530;-55
2022/09/30 04:11:35;;;;;;;19.27;12.70;;;15.90;99.90;;;16.17;79.82;94717.09;5027428;28;20525;-54
2022/09/30 04:14:02;;;;;;;19.73;13.57;;;15.90;99.90;;;16.18;79.86;94707.34;5025665;28;20488;-56
2022/09/30 04:16:31;;;;;;;22.10;14.10;;;15.90;99.90;;;16.15;79.88;94703.19;5023428;28;20497;-55
2022/09/30 04:18:58;;;;;;;24.27;13.43;;;15.90;99.90;;;16.20;79.59;94705.31;5027337;28;20766;-56
2022/09/30 04:21:27;;;;;;;21.07;13.83;;;15.90;99.90;;;16.21;79.88;94704.31;5024637;28;20461;-54
2022/09/30 04:23:55;;;;;;;19.83;12.50;;;15.90;99.90;;;16.23;79.78;94699.66;5027053;28;20459;-57
2022/09/30 04:26:22;;;;;;;16.33;12.13;;;15.90;99.90;;;16.26;79.74;94704.59;5025812;28;20538;-56
2022/09/30 04:28:51;;;;;;;17.47;12.27;;;15.90;99.90;;;16.25;79.43;94719.72;5024629;28;20464;-56
2022/09/30 04:31:20;;;;;;;17.73;10.83;;;15.90;99.90;;;16.23;79.55;94720.88;5026719;28;20460;-55
2022/09/30 04:33:47;;;;;;;12.40;9.63;;;16.00;99.90;;;16.23;79.21;94716.41;5025400;28;20473;-54
2022/09/30 04:36:14;;;;;;;18.00;10.60;;;15.90;99.90;;;16.24;79.31;94717.25;5023324;28;20526;-55
2022/09/30 04:38:43;;;;;;;19.50;9.77;;;15.90;99.90;;;16.22;79.22;94736.00;5024949;28;20469;-55
2022/09/30 04:41:15;;;;;;;13.03;9.40;;;15.90;99.90;;;16.19;78.97;94730.19;5025690;28;20514;-55
2022/09/30 04:43:45;;;;;;;11.70;9.33;;;15.90;99.90;;;16.21;79.24;94738.81;5023365;28;20488;-56
2022/09/30 04:46:13;;;;;;;16.47;10.93;;;15.90;99.90;;;16.21;79.24;94729.03;5026538;28;20830;-56
2022/09/30 04:48:44;;;;;;;22.13;11.13;;;15.90;99.90;;;16.22;79.24;94746.59;5023556;28;20484;-54
2022/09/30 04:51:12;;;;;;;18.73;11.27;;;15.90;99.90;;;16.22;79.03;94740.44;5023821;28;20453;-56
2022/09/30 04:53:39;;;;;;;25.33;11.13;;;15.90;99.90;;;16.22;79.43;94759.03;5025598;28;20460;-54
2022/09/30 04:56:08;;;;;;;17.10;10.40;;;15.90;99.90;;;16.21;79.37;94762.72;5024520;28;21090;-55
2022/09/30 04:58:36;;;;;;;16.27;9.43;;;15.90;99.90;;;16.20;79.36;94772.47;5024540;28;20495;-54
2022/09/30 05:01:03;;;;;;;24.53;8.37;;;15.90;99.90;;;16.20;79.08;94769.00;5023802;28;20568;-52
2022/09/30 05:03:31;;;;;;;17.17;9.47;;;15.90;99.90;;;16.16;79.02;94746.47;5024646;28;20480;-56
2022/09/30 05:05:58;;;;;;;17.57;10.17;;;15.90;99.90;;;16.14;79.33;94759.91;5024500;28;20477;-57
2022/09/30 05:08:25;;;;;;;19.30;10.20;;;15.90;99.90;;;16.15;79.39;94750.97;5025615;28;20997;-56
2022/09/30 05:10:56;;;;;;;17.63;9.67;;;15.90;99.90;;;16.20;79.14;94761.06;5025774;28;21090;-56
2022/09/30 05:13:26;;;;;;;12.40;8.60;;;15.90;99.90;;;16.21;79.15;94760.88;5026031;28;20875;-56
2022/09/30 05:15:53;;;;;;;12.50;9.30;;;15.90;99.90;;;16.26;78.75;94776.25;5026218;28;20519;-56
2022/09/30 05:18:20;;;;;;;26.00;10.90;;;15.90;99.90;;;16.25;78.53;94779.91;5022323;28;20500;-57
2022/09/30 05:20:50;;;;;;;41.87;11.17;;;15.90;99.90;;;16.22;78.59;94777.59;5025698;28;20477;-57
2022/09/30 05:23:18;;;;;;;107.87;12.43;;;15.90;99.90;;;16.18;78.66;94776.34;5025995;28;20453;-56
2022/09/30 05:25:45;;;;;;;118.13;11.00;;;15.90;99.90;;;16.11;78.45;94781.50;5022409;28;20556;-55
2022/09/30 05:28:12;;;;;;;104.70;11.13;;;15.90;99.90;;;16.01;78.29;94783.56;5026351;28;20996;-55
2022/09/30 05:30:42;;;;;;;87.93;11.53;;;15.80;99.90;;;15.88;78.84;94768.22;5025718;28;20476;-56
2022/09/30 05:33:09;;;;;;;63.67;10.87;;;15.70;99.90;;;15.83;79.69;94779.34;5022312;28;20452;-55
2022/09/30 05:35:37;;;;;;;58.53;11.40;;;15.60;99.90;;;15.81;79.22;94786.66;5026187;28;21056;-55
2022/09/30 05:38:04;;;;;;;21.00;10.57;;;15.60;99.90;;;15.79;79.39;94793.16;5025087;28;20492;-56
2022/09/30 05:40:31;;;;;;;30.13;11.50;;;15.50;99.90;;;15.79;79.57;94793.16;5024467;28;20488;-57
2022/09/30 05:42:59;;;;;;;18.23;12.47;;;15.60;99.90;;;15.80;79.27;94800.09;5024670;28;20563;-56
2022/09/30 05:45:26;;;;;;;22.43;13.43;;;15.50;99.90;;;15.80;79.44;94808.03;5023986;28;21044;-55
2022/09/30 05:47:55;;;;;;;40.03;13.33;;;15.50;99.90;;;15.80;79.90;94808.03;5024725;28;20534;-56
2022/09/30 05:50:23;;;;;;;44.23;14.50;;;15.50;99.90;;;15.84;80.05;94806.72;5024442;28;21026;-56
2022/09/30 05:52:51;;;;;;;33.20;14.77;;;15.60;99.90;;;15.86;79.33;94817.97;5023718;28;20449;-55
2022/09/30 05:55:19;;;;;;;45.97;14.80;;;15.60;99.90;;;15.85;79.94;94809.19;5024966;28;21327;-54
2022/09/30 05:57:48;;;;;;;60.47;16.00;;;15.60;99.90;;;15.85;79.83;94808.34;5025600;28;20502;-57
2022/09/30 06:00:15;;;;;;;29.10;15.53;;;15.60;99.90;;;15.83;80.39;94805.03;5025077;28;20666;-54
2022/09/30 06:02:43;;;;;;;27.20;15.63;;;15.60;99.90;;;15.84;80.36;94810.19;5025374;28;20654;-57
2022/09/30 06:05:12;;;;;;;63.97;16.80;;;15.60;99.90;;;15.89;80.01;94812.31;5025517;28;20473;-56
2022/09/30 06:07:39;;;;;;;40.00;16.07;;;15.60;99.90;;;15.92;80.77;94809.31;5024759;28;20453;-56
2022/09/30 06:10:09;;;;;;;28.73;14.10;;;15.70;99.90;;;15.94;80.72;94813.44;5024860;28;20834;-56
2022/09/30 06:12:37;;;;;;;107.00;15.80;;;15.70;99.90;;;16.01;80.93;94826.03;5025495;28;20455;-56
2022/09/30 06:15:05;;;;;;;30.57;15.70;;;15.70;99.90;;;16.08;81.05;94826.94;5024258;28;20484;-56
2022/09/30 06:17:33;;;;;;;31.70;17.73;;;15.80;99.90;;;16.17;80.55;94819.78;5024886;28;20488;-54
2022/09/30 06:20:03;;;;;;;47.93;18.57;;;15.90;99.90;;;16.25;79.80;94814.41;5024124;28;20469;-55
2022/09/30 06:22:34;;;;;;;44.93;17.70;;;15.90;99.90;;;16.24;79.65;94829.53;5024947;28;20727;-54
2022/09/30 06:25:03;;;;;;;30.77;16.83;;;15.90;99.90;;;16.27;80.53;94823.03;5022688;28;20853;-57
2022/09/30 06:27:32;;;;;;;41.50;20.17;;;16.00;99.90;;;16.36;80.65;94827.28;5025029;28;20444;-55
2022/09/30 06:29:59;;;;;;;41.73;21.73;;;16.10;99.90;;;16.41;80.32;94845.34;5024547;28;20473;-55
2022/09/30 06:32:26;;;;;;;42.07;21.00;;;16.10;99.90;;;16.47;79.87;94849.94;5025050;28;20460;-55
2022/09/30 06:34:54;;;;;;;50.63;24.90;;;16.10;99.90;;;16.55;79.94;94851.72;5024483;28;20492;-55
2022/09/30 06:37:22;;;;;;;86.57;29.30;;;16.20;99.90;;;16.59;79.22;94855.66;5025063;28;20921;-53
2022/09/30 06:39:51;;;;;;;70.07;25.80;;;16.20;99.90;;;16.59;79.19;94861.81;5024561;28;20476;-53
2022/09/30 06:42:18;;;;;;;49.80;25.10;;;16.30;99.90;;;16.60;79.65;94854.66;5024399;28;20511;-55
2022/09/30 06:44:45;;;;;;;45.03;23.70;;;16.30;99.90;;;16.65;79.96;94861.09;5024169;28;20479;-56
2022/09/30 06:47:13;;;;;;;48.87;25.17;;;16.30;99.90;;;16.73;79.64;94859.38;5024620;28;20543;-53
2022/09/30 06:49:41;;;;;;;44.97;24.77;;;16.40;99.90;;;16.79;79.79;94870.13;5024881;28;20472;-55
2022/09/30 06:52:11;;;;;;;39.60;24.07;;;16.50;99.90;;;16.87;80.05;94877.25;5024092;28;20503;-55
2022/09/30 06:54:40;;;;;;;41.23;22.60;;;16.50;99.90;;;16.97;79.47;94885.78;5024534;28;20901;-55
2022/09/30 06:57:09;;;;;;;43.07;22.37;;;16.60;99.90;;;17.06;79.47;94885.72;5026880;28;20532;-54
2022/09/30 06:59:36;;;;;;;49.37;25.57;;;16.70;99.90;;;17.12;78.89;94890.31;5028348;28;20480;-55
2022/09/30 07:02:03;;;;;;;44.50;22.07;;;16.80;99.90;;;17.16;78.63;94891.59;5028830;28;20996;-55
2022/09/30 07:04:31;;;;;;;36.30;21.77;;;16.80;99.90;;;17.19;78.41;94883.25;5028357;28;21078;-55
2022/09/30 07:06:58;;;;;;;42.00;23.57;;;16.90;99.90;;;17.25;78.15;94889.69;5028104;28;20775;-56
2022/09/30 07:09:25;;;;;;;41.17;23.77;;;16.90;99.90;;;17.30;78.28;94895.28;5028641;28;20476;-55
2022/09/30 07:11:53;;;;;;;39.10;22.60;;;16.90;99.90;;;17.33;78.49;94908.22;5028202;28;20559;-56
2022/09/30 07:14:22;;;;;;;45.43;24.63;;;17.00;99.90;;;17.35;77.89;94895.56;5028966;28;20480;-56
2022/09/30 07:16:51;;;;;;;42.97;23.67;;;17.00;99.90;;;17.35;77.39;94895.56;5026180;28;20826;-52
2022/09/30 07:19:21;;;;;;;54.70;26.97;;;17.00;99.90;;;17.35;77.78;94898.22;5027635;28;20500;-54
2022/09/30 07:21:49;;;;;;;49.40;25.00;;;17.00;99.90;;;17.30;77.23;94911.25;5028120;28;20470;-54
2022/09/30 07:24:16;;;;;;;44.73;26.43;;;17.00;99.90;;;17.29;77.68;94904.25;5028263;28;20556;-55
2022/09/30 07:26:44;;;;;;;44.53;24.27;;;17.00;99.90;;;17.29;77.73;94906.91;5027900;28;20574;-53
2022/09/30 07:29:12;;;;;;;43.83;26.27;;;17.00;99.90;;;17.32;78.27;94911.88;5028455;28;20564;-55
2022/09/30 07:31:41;;;;;;;45.50;24.50;;;17.00;99.90;;;17.34;78.03;94904.56;5027659;28;20829;-53
2022/09/30 07:34:09;;;;;;;48.37;28.30;;;17.00;99.90;;;17.34;77.82;94905.38;5026687;28;20475;-54
2022/09/30 07:36:36;;;;;;;49.47;29.00;;;17.00;99.90;;;17.35;77.76;94911.50;5027669;28;20969;-55
2022/09/30 07:39:05;;;;;;;62.33;28.90;;;17.00;99.90;;;17.37;78.18;94920.16;5027449;28;20590;-54
2022/09/30 07:41:33;;;;;;;50.50;30.13;;;17.10;99.90;;;17.42;78.34;94917.78;5027893;28;20445;-55
2022/09/30 07:44:01;;;;;;;53.70;28.30;;;17.10;99.90;;;17.52;77.99;94915.69;5027917;28;20834;-55
2022/09/30 07:46:31;;;;;;;54.23;31.50;;;17.20;99.90;;;17.67;77.91;94912.22;5028560;28;20459;-54
2022/09/30 07:49:01;;;;;;;60.37;31.73;;;17.30;99.90;;;17.84;78.50;94911.00;5028047;28;20507;-55
2022/09/30 07:51:30;;;;;;;56.47;27.77;;;17.50;99.90;;;18.09;77.80;94921.41;5028297;28;20491;-56
2022/09/30 07:53:58;;;;;;;68.63;32.50;;;17.70;99.90;;;18.45;77.32;94924.09;5027803;28;20460;-55
2022/09/30 07:56:26;;;;;;;51.00;28.30;;;18.00;99.90;;;18.92;77.22;94923.81;5028009;28;20543;-54
2022/09/30 07:58:54;;;;;;;45.97;27.70;;;18.50;99.90;;;19.49;76.43;94920.19;5024611;28;20492;-53
2022/09/30 08:01:23;;;;;;;46.13;27.33;;;19.00;99.90;;;20.13;74.65;94922.88;5027408;28;20480;-57
2022/09/30 08:03:53;;;;;;;38.40;24.93;;;19.70;99.90;;;20.74;73.30;94933.63;5027292;28;20491;-55
2022/09/30 08:06:22;;;;;;;37.13;23.37;;;20.30;99.90;;;21.37;71.68;94937.84;5027919;28;20448;-56
2022/09/30 08:08:51;;;;;;;36.40;22.53;;;20.90;99.90;;;21.88;70.03;94932.91;5026580;28;20452;-55
2022/09/30 08:11:18;;;;;;;39.50;24.67;;;21.40;99.90;;;22.29;68.85;94929.06;5027269;28;20452;-53
2022/09/30 08:13:49;;;;;;;44.80;25.10;;;21.90;99.90;;;22.75;67.92;94928.09;5027433;28;20484;-55
2022/09/30 08:16:17;;;;;;;37.20;23.40;;;22.40;99.90;;;23.25;66.77;94928.25;5026956;28;20448;-56
2022/09/30 08:18:44;;;;;;;39.70;24.17;;;22.90;99.90;;;23.72;64.96;94933.22;5027043;28;20568;-54
2022/09/30 08:21:11;;;;;;;41.83;23.97;;;23.30;99.90;;;24.17;64.10;94929.53;5027371;28;20814;-55
2022/09/30 08:23:41;;;;;;;42.07;23.90;;;23.70;99.90;;;24.60;61.85;94934.03;5027612;28;20526;-54
2022/09/30 08:26:09;;;;;;;43.60;22.87;;;24.10;99.90;;;24.98;61.91;94945.53;5023375;28;20782;-52
2022/09/30 08:28:37;;;;;;;34.80;21.83;;;24.50;99.90;;;25.14;60.12;94950.25;5029704;28;20460;-53
2022/09/30 08:31:05;;;;;;;48.10;21.63;;;24.70;99.90;;;25.33;60.39;94953.75;5026116;28;21569;-56
2022/09/30 08:33:33;;;;;;;34.27;20.93;;;24.80;99.90;;;25.57;59.82;94954.59;5021523;28;20823;-56
2022/09/30 08:36:05;;;;;;;41.67;21.53;;;25.10;99.50;;;25.83;58.68;94960.63;5026429;28;20476;-58
2022/09/30 08:38:32;;;;;;;34.57;20.03;;;25.30;99.00;;;26.04;55.51;94956.56;5026238;28;20496;-56
2022/09/30 08:41:15;;;;;;;34.93;21.10;;;25.50;96.00;;;26.19;56.71;94949.88;5025821;28;20467;-54
2022/09/30 08:43:51;;;;;;;32.53;20.03;;;25.70;97.30;;;26.39;56.76;94944.91;5025985;28;20468;-56
2022/09/30 08:46:24;;;;;;;32.70;19.20;;;25.80;97.30;;;26.65;56.17;94948.16;5024986;28;20447;-57
2022/09/30 08:48:55;;;;;;;39.60;19.43;;;26.10;96.70;;;26.87;55.53;94958.34;5022923;28;20448;-56
2022/09/30 08:51:30;;;;;;;34.17;18.80;;;26.30;95.90;;;27.06;54.59;94956.28;5026281;28;20517;-56
2022/09/30 08:54:01;;;;;;;28.63;15.83;;;26.50;95.60;;;27.23;54.66;94950.91;5023243;28;20440;-57
2022/09/30 08:56:30;;;;;;;33.57;17.07;;;26.70;94.80;;;27.38;53.91;94961.22;5026572;28;20897;-52
2022/09/30 08:59:01;;;;;;;32.53;14.23;;;26.80;94.10;;;27.48;53.04;94962.22;5025771;28;20606;-56
2022/09/30 09:01:31;;;;;;;29.07;14.30;;;26.90;93.20;;;27.52;53.31;94962.53;5026294;28;20444;-54
2022/09/30 09:03:59;;;;;;;33.37;14.60;;;27.00;93.10;;;27.58;53.61;94960.75;5026244;28;20506;-53
2022/09/30 09:06:31;;;;;;;32.43;14.23;;;27.00;92.90;;;27.70;52.78;94961.47;5026257;28;20460;-56
2022/09/30 09:09:24;;;;;;;20.83;13.83;;;27.10;92.50;;;27.86;51.21;94967.97;5025461;28;20444;-53
2022/09/30 09:12:01;;;;;;;20.13;13.90;;;27.30;91.90;;;28.02;51.94;94977.16;5025542;28;20459;-54
2022/09/30 09:14:39;;;;;;;30.93;13.60;;;27.50;91.50;;;28.13;51.27;94968.13;5025790;28;20499;-56
2022/09/30 09:17:19;;;;;;;26.07;14.50;;;27.60;91.00;;;28.22;50.94;94961.22;5025663;28;20506;-55
2022/09/30 09:19:53;;;;;;;47.87;14.13;;;27.60;90.40;;;28.32;49.92;94960.56;5021769;28;20504;-55
2022/09/30 09:22:20;;;;;;;32.83;13.47;;;27.80;89.50;;;28.38;50.03;94966.84;5026501;28;20447;-56
2022/09/30 09:24:50;;;;;;;21.17;12.90;;;27.80;87.80;;;28.46;49.81;94960.19;5025822;28;20474;-54
2022/09/30 09:27:20;;;;;;;26.93;12.43;;;27.90;87.50;;;28.58;49.63;94961.75;5026190;28;20502;-56
2022/09/30 09:30:04;;;;;;;20.63;13.03;;;28.00;87.50;;;28.70;49.26;94966.22;5026074;28;20491;-58
2022/09/30 09:32:32;;;;;;;27.17;12.40;;;28.10;84.80;;;28.81;49.56;94967.97;5023881;28;20762;-54
2022/09/30 09:35:01;;;;;;;25.87;12.50;;;28.20;85.60;;;28.94;49.29;94967.59;5025736;28;20465;-57
2022/09/30 09:40:27;;;;;;;22.53;12.53;;;28.50;83.90;;;29.25;48.43;94964.44;5023798;28;20467;-56
2022/09/30 09:43:11;;;;;;;17.30;10.37;;;28.60;83.80;;;29.39;47.66;94967.56;5025726;28;20887;-57
2022/09/30 09:45:42;;;;;;;13.17;8.00;;;28.80;81.00;;;29.52;47.54;94967.16;5025770;28;20503;-58
2022/09/30 09:48:12;;;;;;;11.70;8.90;;;28.90;79.70;;;29.63;46.40;94957.22;5023525;28;20727;-55
2022/09/30 09:50:47;;;;;;;26.87;10.57;;;29.00;75.20;;;29.68;46.06;94963.50;5021749;28;21271;-56
2022/09/30 09:53:24;;;;;;;13.83;9.33;;;29.10;76.70;;;29.81;44.88;94969.63;5022663;28;20451;-56
2022/09/30 09:55:56;;;;;;;23.67;11.27;;;29.20;76.10;;;29.93;45.66;94962.13;5024172;28;20533;-56
2022/09/30 09:58:24;;;;;;;21.17;9.23;;;29.30;74.80;;;30.03;45.25;94967.59;5025397;28;20237;-53
2022/09/30 10:01:30;;;;;;;27.03;12.20;;;29.40;73.60;;;30.10;45.56;94963.84;5024809;28;20479;-56
2022/09/30 10:04:26;;;;;;;3.77;2.23;;;29.50;73.50;;;30.11;41.36;94966.31;5025704;28;20933;-57
2022/09/30 10:06:55;;;;;;;8.23;2.33;;;29.60;66.10;;;30.03;42.87;94973.03;5024559;28;20644;-55
2022/09/30 10:09:33;;;;;;;2.77;1.70;;;29.50;67.10;;;29.94;40.34;94971.88;5025382;28;20530;-57
2022/09/30 10:12:28;;;;;;;3.60;2.00;;;29.40;63.70;;;29.81;40.60;94959.56;5025376;28;20201;-56
2022/09/30 10:15:05;;;;;;;5.70;1.80;;;29.30;61.80;;;29.75;41.30;94954.34;5004027;28;20488;-54
2022/09/30 10:17:33;;;;;;;5.13;1.97;;;29.20;61.70;;;29.75;41.29;94949.72;5025148;28;20926;-56
2022/09/30 10:20:07;;;;;;;6.00;2.13;;;29.20;61.70;;;29.66;40.59;94954.00;5024756;28;20602;-55
2022/09/30 10:22:35;;;;;;;3.40;1.63;;;29.10;60.50;;;29.59;40.16;94958.78;5025025;28;20483;-53
2022/09/30 10:25:23;;;;;;;3.33;2.07;;;29.10;59.40;;;29.53;39.41;94951.69;5023760;28;21054;-56
2022/09/30 10:27:56;;;;;;;3.53;2.00;;;29.00;59.20;;;29.55;41.10;94950.38;5021096;28;20444;-55